Time;durP1;ratioP1;P1;durP2;ratioP2;P2;SDS_P1;SDS_P2;PMS_P1;PMS_P2;Temp;Humidity;BMP_temperature;BMP_pressure;BME280_temperature;BME280_humidity;BME280_pressure;Samples;Min_cycle;Max_cycle;Signal;HPM_P1;HPM_P2
2023/06/28 00:01:36;;;;;;;6.32;2.28;;;;;;;27.17;39.58;99564.72;4347752;33;33974;-68
2023/06/28 00:04:05;;;;;;;5.90;2.45;;;;;;;27.16;39.52;99569.38;4347565;33;34866;-69
2023/06/28 00:06:32;;;;;;;4.35;2.22;;;;;;;27.17;39.53;99562.81;4347676;33;35145;-68
2023/06/28 00:09:00;;;;;;;4.10;2.00;;;;;;;27.17;39.47;99568.28;4347815;33;33556;-68
2023/06/28 00:11:28;;;;;;;6.45;2.50;;;;;;;27.16;39.58;99569.38;4347539;33;34565;-68
2023/06/28 00:13:56;;;;;;;7.07;2.97;;;;;;;27.17;39.63;99567.47;4347751;33;34979;-68
2023/06/28 00:16:23;;;;;;;5.50;2.60;;;;;;;27.15;39.63;99566.91;4347625;33;34890;-68
2023/06/28 00:18:51;;;;;;;4.22;2.42;;;;;;;27.15;39.64;99566.91;4347502;33;34412;-68
2023/06/28 00:21:18;;;;;;;5.97;2.55;;;;;;;27.15;39.36;99573.22;4347635;33;33709;-68
2023/06/28 00:23:46;;;;;;;5.00;2.45;;;;;;;27.16;39.17;99568.56;4334334;33;34674;-68
2023/06/28 00:26:14;;;;;;;4.85;2.28;;;;;;;27.14;39.07;99567.97;4347433;33;34103;-68
2023/06/28 00:28:41;;;;;;;5.00;2.50;;;;;;;27.13;38.94;99558.09;4347527;33;33673;-68
2023/06/28 00:31:09;;;;;;;6.82;2.87;;;;;;;27.11;38.75;99550.16;4347598;33;33828;-68
2023/06/28 00:33:37;;;;;;;7.30;2.53;;;;;;;27.11;38.69;99555.62;4334134;33;33917;-68
2023/06/28 00:36:05;;;;;;;4.75;2.40;;;;;;;27.09;38.63;99552.34;4347402;33;34064;-68
2023/06/28 00:38:32;;;;;;;5.68;2.55;;;;;;;27.09;38.58;99554.22;4347809;33;33691;-68
2023/06/28 00:41:00;;;;;;;7.68;3.17;;;;;;;27.08;38.48;99555.28;4347343;33;33656;-68
2023/06/28 00:43:28;;;;;;;6.12;2.87;;;;;;;27.07;38.44;99551.72;4347445;33;33585;-68
2023/06/28 00:45:55;;;;;;;4.72;2.78;;;;;;;27.07;38.36;99564.59;4347462;33;34601;-68
2023/06/28 00:48:23;;;;;;;7.40;3.33;;;;;;;27.05;38.30;99567.59;4347090;33;33637;-68
2023/06/28 00:50:51;;;;;;;6.85;3.15;;;;;;;27.04;38.26;99560.44;4334167;33;34654;-68
2023/06/28 00:53:18;;;;;;;6.70;2.85;;;;;;;27.04;38.22;99563.19;4334171;33;34447;-68
2023/06/28 00:55:46;;;;;;;6.03;2.95;;;;;;;27.04;38.17;99556.88;4347284;33;34748;-68
2023/06/28 00:58:15;;;;;;;5.65;2.75;;;;;;;27.02;38.19;99551.66;4352467;32;33655;-68
2023/06/28 01:00:44;;;;;;;5.80;2.95;;;;;;;27.01;38.12;99560.97;4362194;32;33760;-68
2023/06/28 01:03:18;;;;;;;5.80;3.05;;;;;;;27.01;38.07;99565.63;4362207;32;33929;-69
2023/06/28 01:05:46;;;;;;;5.30;2.50;;;;;;;26.99;37.98;99565.84;4362432;32;34139;-68
2023/06/28 01:08:15;;;;;;;5.57;2.67;;;;;;;26.98;37.95;99561.47;4358558;32;34315;-68
2023/06/28 01:10:42;;;;;;;7.82;3.15;;;;;;;26.99;37.92;99565.03;4361125;32;33567;-68
2023/06/28 01:13:10;;;;;;;4.50;2.50;;;;;;;26.98;37.92;99563.38;4357732;32;33878;-68
2023/06/28 01:15:38;;;;;;;4.85;2.45;;;;;;;26.96;37.95;99563.66;4360967;32;34192;-68
2023/06/28 01:18:05;;;;;;;5.45;2.70;;;;;;;26.96;37.93;99569.13;4362465;32;33323;-68
2023/06/28 01:20:33;;;;;;;5.45;2.70;;;;;;;26.95;37.85;99568.31;4362404;32;34064;-68
2023/06/28 01:23:02;;;;;;;5.65;2.62;;;;;;;26.93;37.82;99573.19;4362138;32;33898;-68
2023/06/28 01:25:29;;;;;;;5.00;2.60;;;;;;;26.93;37.80;99575.09;4362105;32;34004;-68
2023/06/28 01:27:57;;;;;;;6.45;3.00;;;;;;;26.92;37.76;99568.81;4362081;32;33512;-68
2023/06/28 01:30:25;;;;;;;5.55;2.95;;;;;;;26.92;37.70;99571.53;4358754;32;34752;-68
2023/06/28 01:32:53;;;;;;;7.00;2.70;;;;;;;26.91;37.67;99566.34;4355919;32;34719;-68
2023/06/28 01:35:21;;;;;;;7.43;3.40;;;;;;;26.90;37.74;99572.88;4361922;32;34219;-68
2023/06/28 01:37:49;;;;;;;5.47;2.90;;;;;;;26.89;37.76;99569.31;4361861;32;33308;-68
2023/06/28 01:40:17;;;;;;;5.37;2.60;;;;;;;26.89;37.78;99579.44;4361991;32;34079;-68
2023/06/28 01:42:44;;;;;;;6.53;2.40;;;;;;;26.88;37.75;99584.09;4356792;32;34813;-68
2023/06/28 01:45:12;;;;;;;5.90;2.50;;;;;;;26.88;37.69;99570.38;4363346;32;33816;-68
2023/06/28 01:47:40;;;;;;;7.35;2.80;;;;;;;26.89;37.68;99571.22;4376896;32;33661;-68
2023/06/28 01:50:08;;;;;;;5.62;3.00;;;;;;;26.88;37.63;99572.31;4363317;32;34299;-68
2023/06/28 01:52:35;;;;;;;6.12;2.40;;;;;;;26.87;37.61;99570.66;4376634;32;35217;-68
2023/06/28 01:55:03;;;;;;;6.72;2.80;;;;;;;26.85;37.58;99579.09;4363330;32;34078;-68
2023/06/28 01:57:31;;;;;;;6.75;2.78;;;;;;;26.86;37.55;99578.03;4376720;32;33665;-68
2023/06/28 01:59:59;;;;;;;4.55;2.58;;;;;;;26.85;37.57;99576.38;4375672;32;34208;-68
2023/06/28 02:02:27;;;;;;;6.37;2.80;;;;;;;26.84;37.52;99571.16;4376749;32;34294;-67
2023/06/28 02:04:55;;;;;;;6.20;2.80;;;;;;;26.84;37.48;99562.94;4376682;32;34220;-68
2023/06/28 02:07:22;;;;;;;4.60;2.60;;;;;;;26.83;37.46;99566.78;4376534;32;34565;-68
2023/06/28 02:09:50;;;;;;;5.57;2.67;;;;;;;26.82;37.43;99563.22;4376693;32;34062;-68
2023/06/28 02:12:17;;;;;;;4.55;2.40;;;;;;;26.82;37.46;99562.38;4376741;32;34122;-68
2023/06/28 02:14:45;;;;;;;6.65;3.53;;;;;;;26.81;37.32;99550.59;4376764;32;33713;-68
2023/06/28 02:17:15;;;;;;;5.07;2.58;;;;;;;26.82;37.31;99551.44;4376687;32;34234;-68
2023/06/28 02:19:43;;;;;;;7.15;3.30;;;;;;;26.80;37.27;99543.47;4376608;32;33862;-68
2023/06/28 02:22:11;;;;;;;4.37;2.20;;;;;;;26.80;37.27;99548.09;4376509;32;33815;-68
2023/06/28 02:24:39;;;;;;;4.75;2.53;;;;;;;26.80;37.24;99551.66;4376810;32;34042;-68
2023/06/28 02:27:09;;;;;;;5.40;2.65;;;;;;;26.78;37.21;99551.13;4376542;32;33581;-68
2023/06/28 02:29:37;;;;;;;5.60;2.80;;;;;;;26.79;37.20;99546.47;4376327;32;33812;-68
2023/06/28 02:32:05;;;;;;;4.95;2.58;;;;;;;26.80;37.20;99548.09;4376421;32;34761;-68
2023/06/28 02:34:33;;;;;;;5.62;2.53;;;;;;;26.77;37.19;99543.16;4376463;32;33871;-68
2023/06/28 02:37:01;;;;;;;4.60;2.40;;;;;;;26.78;37.19;99544.81;4376335;32;33472;-68
2023/06/28 02:39:29;;;;;;;5.30;2.50;;;;;;;26.77;37.05;99548.63;4376374;32;33665;-68
2023/06/28 02:41:56;;;;;;;8.10;2.72;;;;;;;26.75;37.10;99546.13;4376351;32;33743;-68
2023/06/28 02:44:24;;;;;;;5.50;2.70;;;;;;;26.75;37.05;99545.31;4376061;32;34854;-68
2023/06/28 02:46:52;;;;;;;4.78;2.72;;;;;;;26.75;37.07;99542.56;4376626;32;33595;-68
2023/06/28 02:49:19;;;;;;;6.10;2.97;;;;;;;26.74;37.01;99547.22;4376092;32;34749;-69
2023/06/28 02:51:47;;;;;;;5.22;2.53;;;;;;;26.74;36.95;99549.97;4376113;32;33982;-68
2023/06/28 02:54:15;;;;;;;3.75;2.37;;;;;;;26.74;36.88;99549.13;4376218;32;34543;-68
2023/06/28 02:56:42;;;;;;;3.87;2.20;;;;;;;26.73;36.88;99558.44;4376299;32;33833;-68
2023/06/28 02:59:11;;;;;;;4.93;2.53;;;;;;;26.71;36.95;99556.75;4365218;32;34722;-68
2023/06/28 03:01:39;;;;;;;4.57;2.42;;;;;;;26.71;36.92;99562.22;4361121;32;33665;-68
2023/06/28 03:04:07;;;;;;;4.55;2.47;;;;;;;26.71;36.84;99561.41;4361213;32;34377;-68
2023/06/28 03:06:35;;;;;;;5.57;2.05;;;;;;;26.69;36.76;99553.47;4361524;32;33734;-68
2023/06/28 03:09:03;;;;;;;5.82;2.55;;;;;;;26.70;36.66;99557.84;4360998;32;34059;-68
2023/06/28 03:11:30;;;;;;;4.60;2.20;;;;;;;26.68;36.72;99557.28;4362787;32;33976;-68
2023/06/28 03:14:01;;;;;;;10.48;2.72;;;;;;;26.68;36.70;99557.28;4363179;32;34788;-68
2023/06/28 03:16:29;;;;;;;8.23;2.47;;;;;;;26.67;36.73;99555.62;4363161;32;33573;-68
2023/06/28 03:18:56;;;;;;;6.60;2.67;;;;;;;26.67;36.73;99558.37;4362769;32;33944;-68
2023/06/28 03:21:24;;;;;;;5.22;2.28;;;;;;;26.67;36.76;99565.72;4362880;32;34080;-68
2023/06/28 03:23:52;;;;;;;4.70;2.47;;;;;;;26.66;36.71;99567.66;4362959;32;34037;-68
2023/06/28 03:26:20;;;;;;;5.82;2.12;;;;;;;26.66;36.82;99553.97;4362947;32;34273;-68
2023/06/28 03:28:48;;;;;;;4.70;2.37;;;;;;;26.66;36.69;99558.59;4349750;32;33601;-68
2023/06/28 03:31:16;;;;;;;7.20;2.50;;;;;;;26.65;36.80;99560.53;4362861;32;34156;-68
2023/06/28 03:33:44;;;;;;;5.10;2.30;;;;;;;26.64;36.79;99555.31;4362689;32;34117;-68
2023/06/28 03:36:12;;;;;;;7.37;2.50;;;;;;;26.64;36.63;99555.31;4362780;32;34360;-68
2023/06/28 03:38:39;;;;;;;5.25;2.40;;;;;;;26.63;36.68;99548.19;4363019;32;34861;-68
2023/06/28 03:41:09;;;;;;;4.72;2.45;;;;;;;26.61;36.71;99553.06;4362799;32;34175;-68
2023/06/28 03:43:37;;;;;;;4.65;2.55;;;;;;;26.61;36.76;99555.81;4362670;32;33936;-68
2023/06/28 03:46:05;;;;;;;4.40;2.20;;;;;;;26.60;36.71;99554.97;4363084;32;33078;-68
2023/06/28 03:48:33;;;;;;;6.40;2.58;;;;;;;26.59;36.69;99553.34;4362720;32;35070;-68
2023/06/28 03:51:02;;;;;;;7.20;2.40;;;;;;;26.59;36.60;99553.34;4362988;32;33752;-68
2023/06/28 03:53:30;;;;;;;3.90;2.30;;;;;;;26.57;36.57;99554.66;4362850;32;34932;-68
2023/06/28 03:55:59;;;;;;;10.20;2.77;;;;;;;26.57;36.55;99552.75;4364863;32;33641;-68
2023/06/28 03:58:26;;;;;;;5.95;2.50;;;;;;;26.57;36.45;99550.00;4369704;32;32805;-68
2023/06/28 04:00:54;;;;;;;6.18;2.30;;;;;;;26.56;36.51;99553.84;4384781;32;34819;-68
2023/06/28 04:03:22;;;;;;;4.82;2.28;;;;;;;26.56;36.45;99558.47;4392867;32;34948;-68
2023/06/28 04:05:49;;;;;;;5.55;2.60;;;;;;;26.55;36.50;99554.09;4379798;32;33713;-68
2023/06/28 04:08:17;;;;;;;5.40;2.58;;;;;;;26.56;36.44;99556.56;4377420;32;33943;-68
2023/06/28 04:10:45;;;;;;;8.50;2.40;;;;;;;26.54;36.46;99558.75;4377569;32;34867;-68
2023/06/28 04:13:12;;;;;;;5.20;2.53;;;;;;;26.54;36.52;99557.91;4377729;32;34250;-68
2023/06/28 04:15:40;;;;;;;4.62;2.08;;;;;;;26.55;36.46;99570.50;4377348;32;34460;-68
2023/06/28 04:18:07;;;;;;;4.50;2.10;;;;;;;26.53;36.49;99568.00;4390763;32;34619;-68
2023/06/28 04:20:35;;;;;;;8.32;2.70;;;;;;;26.53;36.47;99575.38;4392807;32;33547;-68
2023/06/28 04:23:02;;;;;;;3.58;2.03;;;;;;;26.53;36.49;99573.47;4391656;32;33896;-68
2023/06/28 04:25:30;;;;;;;4.47;2.12;;;;;;;26.54;36.54;99577.06;4392477;32;33539;-68
2023/06/28 04:27:58;;;;;;;3.87;2.10;;;;;;;26.53;36.52;99586.34;4392660;32;34081;-68
2023/06/28 04:30:25;;;;;;;4.95;2.37;;;;;;;26.52;36.53;99582.78;4392177;32;34099;-68
2023/06/28 04:32:53;;;;;;;5.03;2.28;;;;;;;26.53;36.59;99589.06;4392403;32;34804;-68
2023/06/28 04:35:21;;;;;;;5.82;2.60;;;;;;;26.52;36.65;99585.50;4392266;32;33636;-68
2023/06/28 04:37:50;;;;;;;4.32;2.55;;;;;;;26.51;36.68;99586.59;4392216;32;34563;-68
2023/06/28 04:40:18;;;;;;;4.78;2.45;;;;;;;26.52;36.63;99587.41;4379223;32;33988;-68
2023/06/28 04:42:45;;;;;;;6.28;2.17;;;;;;;26.51;36.60;99589.34;4391665;32;34857;-69
2023/06/28 04:45:13;;;;;;;5.55;2.83;;;;;;;26.52;36.67;99588.25;4367828;32;34379;-68
2023/06/28 04:47:41;;;;;;;4.53;2.40;;;;;;;26.51;36.69;99589.34;4368644;32;34806;-68
2023/06/28 04:50:09;;;;;;;6.32;2.42;;;;;;;26.50;36.72;99584.94;4368802;32;34010;-68
2023/06/28 04:52:36;;;;;;;6.50;2.53;;;;;;;26.50;36.73;99589.59;4370172;32;33932;-68
2023/06/28 04:55:05;;;;;;;7.22;2.80;;;;;;;26.51;36.84;99593.97;4369883;32;34079;-68
2023/06/28 04:57:32;;;;;;;5.05;2.58;;;;;;;26.51;36.81;99597.53;4366964;32;34012;-68
2023/06/28 05:00:00;;;;;;;4.45;2.40;;;;;;;26.50;36.83;99587.69;4373414;32;34980;-68
2023/06/28 05:02:28;;;;;;;5.62;2.55;;;;;;;26.49;36.77;99596.97;4376629;32;34092;-67
2023/06/28 05:04:56;;;;;;;7.95;3.12;;;;;;;26.49;36.86;99596.13;4376843;32;33422;-68
2023/06/28 05:07:23;;;;;;;6.03;2.45;;;;;;;26.49;36.92;99593.38;4376564;32;34648;-67
2023/06/28 05:09:54;;;;;;;9.00;2.75;;;;;;;26.51;36.87;99596.72;4376737;32;34715;-65
2023/06/28 05:12:21;;;;;;;4.30;2.55;;;;;;;26.51;36.87;99603.00;4376728;32;34421;-65
2023/06/28 05:14:49;;;;;;;7.87;2.35;;;;;;;26.52;36.92;99598.38;4376632;32;34373;-66
2023/06/28 05:17:17;;;;;;;5.87;2.62;;;;;;;26.53;36.98;99609.06;4370127;32;34780;-66
2023/06/28 05:19:44;;;;;;;7.45;2.75;;;;;;;26.53;37.02;99609.06;4361921;32;33878;-66
2023/06/28 05:22:12;;;;;;;5.57;2.40;;;;;;;26.54;37.01;99613.47;4361588;32;34951;-66
2023/06/28 05:24:39;;;;;;;5.87;1.98;;;;;;;26.55;37.02;99609.66;4361745;32;33404;-68
2023/06/28 05:27:07;;;;;;;5.32;2.58;;;;;;;26.56;37.05;99613.19;4361743;32;33697;-65
2023/06/28 05:29:34;;;;;;;7.75;2.85;;;;;;;26.56;37.05;99611.28;4361508;32;34906;-65
2023/06/28 05:32:03;;;;;;;3.83;2.12;;;;;;;26.58;37.09;99611.03;4361729;32;34870;-66
2023/06/28 05:34:30;;;;;;;5.30;2.70;;;;;;;26.59;37.10;99610.81;4361669;32;33239;-67
2023/06/28 05:36:58;;;;;;;5.78;2.45;;;;;;;26.59;37.13;99609.97;4361460;32;34698;-66
2023/06/28 05:39:25;;;;;;;5.28;2.17;;;;;;;26.60;37.10;99606.97;4361652;32;33632;-66
2023/06/28 05:41:53;;;;;;;7.62;2.90;;;;;;;26.60;37.08;99601.50;4361482;32;33695;-67
2023/06/28 05:44:21;;;;;;;4.75;2.42;;;;;;;26.61;37.10;99603.16;4361255;32;33555;-66
2023/06/28 05:46:49;;;;;;;6.87;2.53;;;;;;;26.61;37.17;99600.41;4361579;32;33942;-66
2023/06/28 05:49:17;;;;;;;6.37;2.33;;;;;;;26.62;37.18;99603.97;4361543;32;33940;-67
2023/06/28 05:51:45;;;;;;;4.97;2.97;;;;;;;26.61;37.18;99594.94;4363413;32;33965;-66
2023/06/28 05:54:13;;;;;;;6.28;2.62;;;;;;;26.62;37.16;99602.06;4372069;32;33398;-67
2023/06/28 05:56:40;;;;;;;7.28;2.85;;;;;;;26.64;37.17;99604.56;4376352;32;33742;-66
2023/06/28 05:59:08;;;;;;;4.50;2.20;;;;;;;26.64;37.19;99602.66;4376354;32;33474;-66
2023/06/28 06:01:36;;;;;;;3.97;2.42;;;;;;;26.65;37.17;99609.78;4376280;32;34036;-66
2023/06/28 06:04:04;;;;;;;5.80;2.70;;;;;;;26.65;37.21;99617.16;4376176;32;33621;-66
2023/06/28 06:06:31;;;;;;;5.18;2.95;;;;;;;26.64;37.18;99619.06;4376108;32;33848;-67
2023/06/28 06:08:59;;;;;;;6.60;2.72;;;;;;;26.65;37.19;99623.47;4376581;32;34120;-67
2023/06/28 06:11:28;;;;;;;4.53;2.25;;;;;;;26.66;37.20;99611.44;4362800;32;34240;-67
2023/06/28 06:13:55;;;;;;;3.83;1.98;;;;;;;26.66;37.18;99624.28;4362704;32;33534;-67
2023/06/28 06:16:23;;;;;;;5.10;2.30;;;;;;;26.67;37.16;99625.94;4376282;32;33761;-66
2023/06/28 06:18:51;;;;;;;4.90;2.47;;;;;;;26.67;37.14;99628.69;4376195;32;34037;-66
2023/06/28 06:21:18;;;;;;;5.12;2.35;;;;;;;26.66;37.11;99624.28;4376139;32;34115;-67
2023/06/28 06:23:46;;;;;;;3.70;2.22;;;;;;;26.67;37.13;99632.28;4376204;32;34418;-66
2023/06/28 06:26:13;;;;;;;6.10;2.30;;;;;;;26.67;37.17;99643.22;4362341;32;34867;-66
2023/06/28 06:28:41;;;;;;;4.55;2.55;;;;;;;26.67;37.18;99654.16;4376165;32;33602;-66
2023/06/28 06:31:13;;;;;;;6.03;2.45;;;;;;;26.67;37.16;99647.84;4375996;32;34833;-66
2023/06/28 06:33:41;;;;;;;5.10;2.20;;;;;;;26.67;37.14;99653.31;4375944;32;33733;-65
2023/06/28 06:36:09;;;;;;;4.75;2.33;;;;;;;26.68;37.16;99647.59;4375847;32;34399;-66
2023/06/28 06:38:37;;;;;;;3.70;2.10;;;;;;;26.68;37.18;99649.50;4376146;32;33571;-65
2023/06/28 06:41:05;;;;;;;3.80;1.92;;;;;;;26.68;37.20;99655.00;4375892;32;34128;-65
2023/06/28 06:43:33;;;;;;;5.53;2.50;;;;;;;26.67;37.16;99659.63;4362322;32;33346;-66
2023/06/28 06:46:00;;;;;;;3.75;2.00;;;;;;;26.69;37.05;99667.59;4375189;32;34624;-66
2023/06/28 06:48:28;;;;;;;4.35;1.95;;;;;;;26.69;37.05;99664.84;4375795;32;33586;-66
2023/06/28 06:50:56;;;;;;;4.53;1.98;;;;;;;26.69;37.03;99660.19;4375786;32;34791;-66
2023/06/28 06:53:23;;;;;;;5.60;2.00;;;;;;;26.69;36.95;99659.38;4374406;32;34310;-66
2023/06/28 06:55:51;;;;;;;5.07;2.15;;;;;;;26.70;36.89;99667.31;4375661;32;34573;-66
2023/06/28 06:58:19;;;;;;;4.47;1.80;;;;;;;26.69;36.82;99662.94;4372822;32;34536;-68
2023/06/28 07:00:47;;;;;;;6.30;1.90;;;;;;;26.68;36.47;99671.41;4360828;32;34314;-66
2023/06/28 07:03:15;;;;;;;4.10;1.90;;;;;;;26.66;36.44;99668.06;4360531;32;33166;-68
2023/06/28 07:05:42;;;;;;;3.37;1.77;;;;;;;26.63;36.27;99674.91;4361102;32;33827;-67
2023/06/28 07:08:10;;;;;;;5.70;1.85;;;;;;;26.61;36.31;99676.22;4360542;32;34010;-68
2023/06/28 07:10:38;;;;;;;4.72;1.95;;;;;;;26.60;36.17;99674.56;4360394;32;34098;-67
2023/06/28 07:13:07;;;;;;;3.50;1.52;;;;;;;26.59;36.00;99684.69;4360785;32;33642;-67
2023/06/28 07:15:34;;;;;;;8.00;2.08;;;;;;;26.57;35.80;99681.34;4360268;32;33620;-67
2023/06/28 07:18:03;;;;;;;5.45;1.83;;;;;;;26.55;35.68;99688.16;4347720;32;33867;-65
2023/06/28 07:20:31;;;;;;;12.25;2.08;;;;;;;26.51;35.73;99676.88;4362463;32;34061;-68
2023/06/28 07:22:58;;;;;;;6.50;1.60;;;;;;;26.52;35.53;99678.53;4375452;32;33598;-67
2023/06/28 07:25:26;;;;;;;4.95;1.60;;;;;;;26.48;35.47;99669.16;4371553;32;34934;-68
2023/06/28 07:27:53;;;;;;;7.50;1.77;;;;;;;26.47;35.36;99659.31;4376122;32;33702;-67
2023/06/28 07:30:21;;;;;;;4.28;1.77;;;;;;;26.43;35.37;99672.66;4355300;32;34860;-66
2023/06/28 07:32:49;;;;;;;3.10;1.30;;;;;;;26.43;35.38;99690.97;4360830;32;33142;-68
2023/06/28 07:35:16;;;;;;;2.25;1.42;;;;;;;26.40;35.25;99688.72;4365034;32;33943;-66
2023/06/28 07:37:44;;;;;;;5.57;1.83;;;;;;;26.39;35.18;99689.78;4375048;32;34666;-68
2023/06/28 07:40:13;;;;;;;3.35;1.48;;;;;;;26.34;35.05;99686.97;4375163;32;34838;-68
2023/06/28 07:42:42;;;;;;;4.20;1.30;;;;;;;26.32;35.03;99691.88;4353818;32;34369;-67
2023/06/28 07:45:10;;;;;;;5.07;1.85;;;;;;;26.32;34.98;99694.59;4360372;32;33955;-66
2023/06/28 07:47:38;;;;;;;3.17;1.40;;;;;;;26.29;35.11;99697.84;4360531;32;34081;-68
2023/06/28 07:50:09;;;;;;;3.90;1.40;;;;;;;26.25;35.18;99689.28;4347248;32;33854;-67
2023/06/28 07:52:36;;;;;;;6.37;1.50;;;;;;;26.25;35.12;99696.66;4366792;32;34049;-67
2023/06/28 07:55:07;;;;;;;4.57;1.67;;;;;;;26.23;35.13;99691.44;4375366;32;33421;-68
2023/06/28 07:57:34;;;;;;;;;;;;;;;26.22;35.10;99695.28;4376415;32;33990;-68
2023/06/28 08:00:03;;;;;;;4.00;1.50;;;;;;;26.29;34.75;99689.63;4363661;32;33503;-68
2023/06/28 08:02:33;;;;;;;5.10;1.33;;;;;;;26.18;34.70;99694.94;4377501;32;33587;-68
2023/06/28 08:05:01;;;;;;;3.92;1.60;;;;;;;26.13;34.93;99696.75;4376757;32;33645;-68
2023/06/28 08:07:28;;;;;;;5.43;1.45;;;;;;;26.11;34.99;99686.06;4376319;32;33652;-68
2023/06/28 08:09:56;;;;;;;4.80;1.42;;;;;;;26.10;35.07;99681.66;4376192;32;34092;-68
2023/06/28 08:12:24;;;;;;;3.12;1.70;;;;;;;26.10;35.10;99689.84;4375439;32;33575;-68
2023/06/28 08:14:51;;;;;;;3.97;1.60;;;;;;;26.08;35.09;99686.56;4374222;32;33643;-68
2023/06/28 08:17:20;;;;;;;3.35;1.65;;;;;;;26.07;35.18;99681.34;4361826;32;34417;-67
2023/06/28 08:19:48;;;;;;;4.12;1.60;;;;;;;26.07;35.19;99682.16;4358193;32;35321;-68
2023/06/28 08:22:15;;;;;;;5.18;1.45;;;;;;;26.07;35.04;99671.22;4370867;32;33351;-68
2023/06/28 08:24:43;;;;;;;4.22;1.70;;;;;;;26.07;35.13;99676.69;4355530;32;33820;-68
2023/06/28 08:27:11;;;;;;;4.28;1.50;;;;;;;26.05;35.20;99673.37;4354036;32;33601;-68
2023/06/28 08:29:39;;;;;;;4.25;2.22;;;;;;;26.06;34.98;99675.03;4362486;32;34443;-68
2023/06/28 08:32:07;;;;;;;4.28;1.75;;;;;;;26.04;34.80;99673.63;4382360;32;33350;-68
2023/06/28 08:34:35;;;;;;;6.55;1.45;;;;;;;26.02;34.95;99678.50;4374193;32;33945;-68
2023/06/28 08:37:03;;;;;;;4.82;1.55;;;;;;;26.03;35.05;99682.91;4363967;32;33749;-68
2023/06/28 08:39:31;;;;;;;4.93;1.70;;;;;;;26.01;35.11;99680.41;4379108;32;34642;-68
2023/06/28 08:42:00;;;;;;;3.58;1.62;;;;;;;26.03;35.18;99680.19;4384139;32;34365;-67
2023/06/28 08:44:28;;;;;;;5.70;1.50;;;;;;;26.02;35.24;99676.62;4361065;32;33936;-67
2023/06/28 08:46:55;;;;;;;3.70;1.40;;;;;;;26.02;35.36;99667.56;4375602;32;33929;-68
2023/06/28 08:49:23;;;;;;;3.58;1.52;;;;;;;26.03;35.45;99670.06;4370969;32;34787;-64
2023/06/28 08:51:51;;;;;;;2.45;1.33;;;;;;;26.06;35.53;99666.81;4355049;32;33456;-70
2023/06/28 08:54:20;;;;;;;3.58;1.45;;;;;;;26.08;35.62;99666.59;4361282;32;34544;-70
2023/06/28 08:56:50;;;;;;;4.20;1.83;;;;;;;26.08;35.64;99664.69;4343372;32;34795;-68
2023/06/28 08:59:38;;;;;;;6.95;1.70;;;;;;;26.09;35.72;99663.59;4360813;32;34136;-70
2023/06/28 09:02:08;;;;;;;3.85;1.65;;;;;;;26.13;35.76;99664.75;4359971;32;33323;-68
2023/06/28 09:04:35;;;;;;;;;;;;;;;26.13;35.70;99651.09;4364061;32;33589;-68
2023/06/28 09:07:03;;;;;;;4.93;1.52;;;;;;;26.25;35.52;99650.16;4366074;32;33567;-68
2023/06/28 09:09:31;;;;;;;4.53;1.27;;;;;;;26.16;35.69;99656.06;4360310;32;34776;-69
2023/06/28 09:11:59;;;;;;;3.37;1.50;;;;;;;26.15;35.67;99659.88;4362232;32;33685;-66
2023/06/28 09:14:29;;;;;;;3.50;1.35;;;;;;;26.16;35.71;99655.22;4354624;32;34582;-65
2023/06/28 09:16:57;;;;;;;4.55;1.60;;;;;;;26.16;35.71;99653.34;4364730;32;33784;-71
2023/06/28 09:19:25;;;;;;;5.05;1.30;;;;;;;26.18;35.76;99656.66;4362058;32;34097;-70
2023/06/28 09:21:52;;;;;;;2.30;1.30;;;;;;;26.18;35.79;99648.44;4369248;32;33660;-66
2023/06/28 09:24:20;;;;;;;3.33;1.35;;;;;;;26.20;35.81;99649.00;4366546;32;33755;-68
2023/06/28 09:26:47;;;;;;;2.60;1.50;;;;;;;26.22;35.84;99647.94;4332921;33;34712;-71
2023/06/28 09:29:15;;;;;;;2.35;1.27;;;;;;;26.23;35.85;99641.41;4351689;32;34064;-68
2023/06/28 09:31:44;;;;;;;4.57;1.42;;;;;;;26.24;35.86;99634.84;4352227;32;33147;-68
2023/06/28 09:34:12;;;;;;;7.65;1.92;;;;;;;26.24;35.89;99632.94;4361099;32;33946;-69
2023/06/28 09:36:39;;;;;;;4.22;1.77;;;;;;;26.25;35.74;99640.06;4361724;32;33710;-68
2023/06/28 09:39:10;;;;;;;2.85;1.40;;;;;;;26.25;35.86;99631.84;4356414;32;34109;-69
2023/06/28 09:41:41;;;;;;;3.90;1.30;;;;;;;26.25;35.69;99626.38;4346906;33;33354;-70
2023/06/28 09:44:10;;;;;;;2.70;1.35;;;;;;;26.25;35.74;99633.75;4347341;32;32934;-70
2023/06/28 09:46:46;;;;;;;4.87;1.42;;;;;;;26.26;35.82;99629.97;4359956;32;34379;-68
2023/06/28 09:49:21;;;;;;;4.97;1.60;;;;;;;26.27;35.82;99621.50;4343767;32;34183;-70
2023/06/28 09:52:03;;;;;;;3.50;1.50;;;;;;;26.27;35.73;99626.97;4361553;32;33685;-69
2023/06/28 09:54:45;;;;;;;6.03;1.60;;;;;;;26.28;35.78;99623.16;4360782;32;34043;-72
2023/06/28 09:57:13;;;;;;;3.00;1.60;;;;;;;26.26;35.72;99625.31;4358117;32;34021;-67
2023/06/28 09:59:41;;;;;;;3.90;1.50;;;;;;;26.25;35.47;99626.38;4352677;32;34096;-71
2023/06/28 10:02:09;;;;;;;2.42;1.40;;;;;;;26.25;35.23;99625.56;4356431;32;34424;-72
2023/06/28 10:04:37;;;;;;;5.25;1.67;;;;;;;26.25;35.17;99631.03;4340023;32;34746;-71
2023/06/28 10:07:06;;;;;;;4.37;1.52;;;;;;;26.24;34.98;99634.84;4357002;32;33929;-68
2023/06/28 10:09:39;;;;;;;3.80;1.50;;;;;;;26.24;35.04;99635.66;4359759;32;34286;-74
2023/06/28 10:12:20;;;;;;;3.70;1.60;;;;;;;26.25;35.15;99633.75;4361274;32;34065;-68
2023/06/28 10:15:00;;;;;;;2.60;1.30;;;;;;;26.23;34.84;99634.03;4358192;32;33340;-68
2023/06/28 10:17:28;;;;;;;4.70;1.52;;;;;;;26.24;34.58;99632.94;4358876;32;34922;-70
2023/06/28 10:19:56;;;;;;;7.47;1.67;;;;;;;26.22;34.43;99639.75;4358261;32;34926;-72
2023/06/28 10:22:24;;;;;;;4.25;1.40;;;;;;;26.20;34.60;99634.50;4356946;32;33658;-71
2023/06/28 10:24:51;;;;;;;2.72;1.50;;;;;;;26.18;34.44;99634.75;4361541;32;34043;-70
2023/06/28 10:27:19;;;;;;;2.22;1.40;;;;;;;26.19;34.51;99630.13;4357467;32;34071;-72
2023/06/28 10:29:51;;;;;;;2.78;1.55;;;;;;;26.19;34.54;99636.41;4360782;32;34261;-71
2023/06/28 10:32:19;;;;;;;2.33;1.40;;;;;;;26.18;34.60;99629.28;4361525;32;33502;-72
2023/06/28 10:34:47;;;;;;;3.12;1.30;;;;;;;26.18;34.50;99621.09;4353199;32;34037;-68
2023/06/28 10:37:20;;;;;;;2.92;1.40;;;;;;;26.19;34.47;99613.72;4360424;32;34817;-72
2023/06/28 10:39:50;;;;;;;5.18;1.50;;;;;;;26.20;34.42;99607.97;4360853;32;34811;-73
2023/06/28 10:42:20;;;;;;;3.12;1.52;;;;;;;26.19;34.47;99608.25;4373948;32;34517;-71
2023/06/28 10:44:55;;;;;;;4.68;1.83;;;;;;;26.21;34.29;99600.62;4369517;32;34020;-72
2023/06/28 10:47:22;;;;;;;3.53;1.37;;;;;;;26.21;34.12;99592.44;4357583;32;34814;-72
2023/06/28 10:50:12;;;;;;;2.80;1.15;;;;;;;26.21;33.80;99589.69;4361159;32;34224;-68
2023/06/28 10:52:45;;;;;;;2.42;1.40;;;;;;;26.22;33.82;99594.09;4359117;32;35028;-69
2023/06/28 10:55:16;;;;;;;5.75;1.70;;;;;;;26.22;33.84;99596.00;4351876;32;34336;-69
2023/06/28 10:58:08;;;;;;;3.42;1.87;;;;;;;26.22;33.82;99576.84;4354441;32;33981;-69
2023/06/28 11:00:36;;;;;;;2.20;1.20;;;;;;;26.24;33.67;99588.34;4367784;32;33876;-71
2023/06/28 11:03:05;;;;;;;2.78;1.60;;;;;;;26.23;33.77;99592.16;4345846;33;33626;-71
2023/06/28 11:05:44;;;;;;;3.25;1.27;;;;;;;26.23;33.83;99593.00;4356719;32;33408;-70
2023/06/28 11:08:15;;;;;;;2.22;1.15;;;;;;;26.26;33.91;99597.16;4360642;32;33843;-71
2023/06/28 11:10:47;;;;;;;1.92;1.27;;;;;;;26.23;33.74;99586.69;4354716;32;34845;-69
2023/06/28 11:13:38;;;;;;;4.25;1.48;;;;;;;26.25;33.56;99592.72;4356782;32;33246;-70
2023/06/28 11:16:08;;;;;;;2.90;1.60;;;;;;;26.28;33.39;99593.06;4360848;32;33557;-67
2023/06/28 11:18:36;;;;;;;6.30;1.52;;;;;;;26.26;33.37;99588.94;4345782;32;34661;-70
2023/06/28 11:21:04;;;;;;;2.97;1.37;;;;;;;26.27;33.55;99587.84;4345472;33;33998;-71
2023/06/28 11:23:41;;;;;;;3.90;1.60;;;;;;;26.26;33.54;99592.50;4357970;32;33818;-68
2023/06/28 11:26:30;;;;;;;3.45;1.45;;;;;;;26.26;33.57;99589.78;4360210;32;34672;-68
2023/06/28 11:28:58;;;;;;;3.35;1.35;;;;;;;26.30;33.42;99587.34;4360664;32;34796;-71
2023/06/28 11:31:34;;;;;;;2.58;1.33;;;;;;;26.29;33.51;99591.97;4361640;32;34770;-69
2023/06/28 11:34:02;;;;;;;3.25;1.48;;;;;;;26.31;33.23;99586.28;4362903;32;33824;-70
2023/06/28 11:36:29;;;;;;;4.35;1.58;;;;;;;26.30;33.31;99587.34;4362789;32;34667;-70
2023/06/28 11:38:57;;;;;;;4.10;1.58;;;;;;;26.31;33.13;99578.06;4356646;32;34209;-70
2023/06/28 11:41:26;;;;;;;4.70;1.52;;;;;;;26.31;33.26;99567.97;4359813;32;34018;-70